Time;durP1;ratioP1;P1;durP2;ratioP2;P2;SDS_P1;SDS_P2;PMS_P1;PMS_P2;Temp;Humidity;BMP_temperature;BMP_pressure;BME280_temperature;BME280_humidity;BME280_pressure;Samples;Min_cycle;Max_cycle;Signal;HPM_P1;HPM_P2
2023/09/01 00:00:09;;;;;;;1.38;0.70;;;11.80;99.90;;;;;;4998411;28;20524;-60
2023/09/01 00:02:35;;;;;;;1.00;0.63;;;11.80;99.90;;;;;;5015936;28;20101;-60
2023/09/01 00:05:01;;;;;;;1.02;0.60;;;11.80;99.90;;;;;;5015604;28;20053;-60
2023/09/01 00:07:27;;;;;;;1.08;0.75;;;11.80;99.90;;;;;;5016016;28;20042;-60
2023/09/01 00:09:52;;;;;;;1.75;0.90;;;11.80;99.90;;;;;;5015548;28;20042;-60
2023/09/01 00:12:18;;;;;;;0.50;0.50;;;11.80;99.90;;;;;;5015848;28;20034;-60
2023/09/01 00:14:43;;;;;;;0.68;0.68;;;11.90;99.90;;;;;;5015789;28;20096;-60
2023/09/01 00:17:12;;;;;;;0.73;0.73;;;11.80;99.90;;;;;;5015867;28;20540;-60
2023/09/01 00:19:38;;;;;;;1.45;0.95;;;12.00;99.90;;;;;;4981695;28;20131;-60
2023/09/01 00:22:04;;;;;;;0.70;0.70;;;11.80;99.90;;;;;;5015546;28;20046;-60
2023/09/01 00:24:32;;;;;;;1.00;0.75;;;11.80;99.90;;;;;;5015620;28;20398;-60
2023/09/01 00:26:58;;;;;;;1.23;0.85;;;11.80;99.90;;;;;;5015570;28;20068;-60
2023/09/01 00:29:24;;;;;;;0.70;0.70;;;11.80;99.90;;;;;;5015573;28;20034;-60
2023/09/01 00:31:50;;;;;;;0.80;0.80;;;11.80;99.90;;;;;;5015518;28;20106;-60
2023/09/01 00:34:15;;;;;;;0.80;0.70;;;11.80;99.90;;;;;;5015443;28;20046;-60
2023/09/01 00:36:41;;;;;;;0.65;0.65;;;11.70;99.90;;;;;;5015374;28;20394;-60
2023/09/01 00:39:07;;;;;;;0.70;0.70;;;11.70;99.90;;;;;;5015347;28;20045;-60
2023/09/01 00:41:32;;;;;;;1.80;0.88;;;11.70;99.90;;;;;;5015227;28;20474;-60
2023/09/01 00:43:58;;;;;;;0.60;0.60;;;11.70;99.90;;;;;;5015237;28;20045;-60
2023/09/01 00:46:24;;;;;;;1.30;0.70;;;11.70;99.90;;;;;;5015251;28;20529;-60
2023/09/01 00:48:49;;;;;;;0.88;0.63;;;11.70;99.90;;;;;;5015155;28;20046;-60
2023/09/01 00:51:15;;;;;;;1.45;0.90;;;11.70;99.90;;;;;;5015119;28;20111;-60
2023/09/01 00:53:41;;;;;;;0.82;0.60;;;11.70;99.90;;;;;;5015032;28;20049;-60
2023/09/01 00:56:07;;;;;;;0.70;0.70;;;11.70;99.90;;;;;;5014697;28;20042;-60
2023/09/01 00:58:33;;;;;;;0.55;0.55;;;11.70;99.90;;;;;;5014978;28;20045;-60
2023/09/01 01:00:58;;;;;;;0.60;0.60;;;11.70;99.90;;;;;;4997134;28;20037;-60
2023/09/01 01:03:25;;;;;;;0.75;0.75;;;11.60;99.90;;;;;;4996923;28;20184;-60
2023/09/01 01:06:13;;;;;;;0.70;0.70;;;11.70;99.90;;;;;;5013862;28;20048;-60
2023/09/01 01:09:00;;;;;;;2.67;1.00;;;11.70;99.90;;;;;;5014957;28;20042;-60
2023/09/01 01:12:06;;;;;;;0.82;0.60;;;11.60;99.90;;;;;;5014747;28;20065;-60
2023/09/01 01:14:46;;;;;;;0.68;0.60;;;11.60;99.90;;;;;;5014718;28;20042;-60
2023/09/01 01:17:14;;;;;;;1.83;0.82;;;11.60;99.90;;;;;;5014667;28;20052;-60
2023/09/01 01:19:51;;;;;;;0.60;0.52;;;11.60;99.90;;;;;;5014324;28;20100;-60
2023/09/01 01:22:41;;;;;;;0.50;0.50;;;11.60;99.90;;;;;;5014470;28;20046;-60
2023/09/01 01:25:11;;;;;;;0.60;0.60;;;11.50;99.90;;;;;;5014533;28;20045;-60
2023/09/01 01:27:38;;;;;;;0.82;0.80;;;11.50;99.90;;;;;;5014402;28;20034;-60
2023/09/01 01:30:07;;;;;;;0.65;0.65;;;11.40;99.90;;;;;;5014476;28;20425;-60
2023/09/01 01:32:34;;;;;;;0.60;0.60;;;11.40;99.90;;;;;;5014397;28;20075;-60
2023/09/01 01:35:08;;;;;;;0.60;0.60;;;11.40;99.90;;;;;;5014337;28;20382;-60
2023/09/01 01:37:40;;;;;;;0.70;0.70;;;11.40;99.90;;;;;;5014079;28;20037;-60
2023/09/01 01:40:08;;;;;;;0.63;0.50;;;11.40;99.90;;;;;;5014086;28;20048;-60
2023/09/01 01:42:36;;;;;;;1.23;0.80;;;11.40;99.90;;;;;;5014146;28;20413;-60
2023/09/01 01:45:03;;;;;;;0.73;0.68;;;11.30;99.90;;;;;;5014150;28;20087;-60
2023/09/01 01:47:29;;;;;;;0.77;0.77;;;11.40;99.90;;;;;;5014164;28;20040;-60
2023/09/01 01:49:55;;;;;;;0.65;0.65;;;11.40;99.90;;;;;;4996438;28;20034;-60
2023/09/01 01:52:21;;;;;;;1.30;0.70;;;11.40;99.90;;;;;;5013686;28;20048;-60
2023/09/01 01:54:46;;;;;;;2.40;0.73;;;11.40;99.90;;;;;;5013911;28;20042;-60
2023/09/01 01:57:14;;;;;;;0.70;0.70;;;11.40;99.90;;;;;;5013689;28;20046;-60
2023/09/01 01:59:41;;;;;;;1.33;0.82;;;11.40;99.90;;;;;;4996070;28;20108;-60
2023/09/01 02:02:06;;;;;;;2.47;0.80;;;11.40;99.90;;;;;;5013820;28;20447;-60
2023/09/01 02:04:32;;;;;;;0.80;0.70;;;11.40;99.90;;;;;;5013376;28;20414;-60
2023/09/01 02:06:58;;;;;;;1.15;0.85;;;11.20;99.90;;;;;;5013817;28;20092;-60
2023/09/01 02:09:25;;;;;;;1.23;0.60;;;11.30;99.90;;;;;;5013553;28;20121;-61
2023/09/01 02:11:51;;;;;;;0.50;0.50;;;11.40;99.90;;;;;;4995831;28;20050;-62
2023/09/01 02:14:16;;;;;;;1.30;0.70;;;11.30;99.90;;;;;;4995835;28;20505;-63
2023/09/01 02:16:43;;;;;;;0.98;0.80;;;11.60;99.90;;;;;;5013211;28;20049;-61
2023/09/01 02:19:11;;;;;;;0.65;0.65;;;11.50;99.90;;;;;;5013616;28;20056;-61
2023/09/01 02:21:37;;;;;;;1.55;1.08;;;11.40;99.90;;;;;;5013508;28;20050;-62
2023/09/01 02:24:02;;;;;;;0.60;0.60;;;11.40;99.90;;;;;;5013448;28;20061;-61
2023/09/01 02:26:28;;;;;;;0.95;0.88;;;11.50;99.90;;;;;;5013544;28;20034;-62
2023/09/01 02:28:54;;;;;;;0.60;0.60;;;11.60;99.90;;;;;;5013643;28;20181;-61
2023/09/01 02:31:21;;;;;;;0.73;0.70;;;11.60;99.90;;;;;;4995662;28;20038;-61
2023/09/01 02:33:46;;;;;;;1.13;0.70;;;11.80;99.90;;;;;;5013457;28;20052;-61
2023/09/01 02:36:28;;;;;;;1.00;0.80;;;12.30;99.90;;;;;;5013434;28;20038;-61
2023/09/01 02:38:55;;;;;;;0.75;0.75;;;11.50;99.90;;;;;;5013358;28;20046;-61
2023/09/01 02:41:22;;;;;;;2.03;0.80;;;11.70;99.90;;;;;;4995405;28;20128;-61
2023/09/01 02:43:48;;;;;;;1.27;0.90;;;11.60;99.90;;;;;;5013313;28;20516;-62
2023/09/01 02:46:14;;;;;;;0.60;0.60;;;11.50;99.90;;;;;;4995735;28;20081;-61
2023/09/01 02:48:39;;;;;;;1.00;0.88;;;11.70;99.90;;;;;;5013385;28;20026;-61
2023/09/01 02:51:06;;;;;;;1.15;0.85;;;11.70;99.90;;;;;;5012932;28;20037;-61
2023/09/01 02:53:34;;;;;;;0.70;0.70;;;11.70;99.90;;;;;;5013138;28;20033;-61
2023/09/01 02:56:01;;;;;;;1.05;0.73;;;12.10;99.90;;;;;;5013149;28;20041;-61
2023/09/01 02:58:27;;;;;;;1.48;0.68;;;12.10;99.90;;;;;;5012941;28;20040;-61
2023/09/01 03:00:53;;;;;;;0.50;0.50;;;11.40;99.90;;;;;;5013110;28;20038;-61
2023/09/01 03:03:20;;;;;;;0.80;0.73;;;11.80;99.90;;;;;;5013106;28;20038;-61
2023/09/01 03:05:46;;;;;;;1.73;0.60;;;11.60;99.90;;;;;;5012696;28;20125;-61
2023/09/01 03:08:12;;;;;;;0.63;0.63;;;11.40;99.90;;;;;;5013129;28;20436;-62
2023/09/01 03:10:38;;;;;;;1.50;0.98;;;11.50;99.90;;;;;;5013034;28;20092;-61
2023/09/01 03:13:04;;;;;;;0.70;0.70;;;11.50;99.90;;;;;;4995344;28;20041;-61
2023/09/01 03:15:30;;;;;;;0.93;0.70;;;11.50;99.90;;;;;;5012996;28;20103;-62
2023/09/01 03:17:56;;;;;;;1.08;0.70;;;11.20;99.90;;;;;;5012963;28;20046;-61
2023/09/01 03:20:23;;;;;;;1.15;0.80;;;11.50;99.90;;;;;;5013176;28;20093;-60
2023/09/01 03:22:49;;;;;;;0.93;0.88;;;11.40;99.90;;;;;;5012831;28;20038;-60
2023/09/01 03:25:15;;;;;;;0.90;0.90;;;11.50;99.90;;;;;;5012977;28;20045;-60
2023/09/01 03:27:41;;;;;;;0.65;0.65;;;11.30;99.90;;;;;;4996748;28;20033;-60
2023/09/01 03:30:07;;;;;;;2.17;0.70;;;11.40;99.90;;;;;;5016552;28;20038;-60
2023/09/01 03:32:36;;;;;;;0.60;0.60;;;11.40;99.90;;;;;;5016647;28;20045;-60
2023/09/01 03:35:02;;;;;;;1.33;0.80;;;11.50;99.90;;;;;;5016528;28;20398;-60
2023/09/01 03:37:28;;;;;;;0.50;0.50;;;11.60;99.90;;;;;;5016580;28;20485;-60
2023/09/01 03:39:54;;;;;;;0.60;0.60;;;11.30;99.90;;;;;;5016563;28;20048;-60
2023/09/01 03:42:19;;;;;;;0.73;0.73;;;11.20;99.90;;;;;;5015991;28;20034;-60
2023/09/01 03:44:45;;;;;;;1.48;0.88;;;11.40;99.90;;;;;;5016357;28;20111;-67
2023/09/01 03:47:12;;;;;;;1.42;0.82;;;11.50;99.90;;;;;;5016313;28;20077;-63
2023/09/01 03:49:38;;;;;;;0.70;0.70;;;11.00;99.90;;;;;;5016246;28;20033;-62
2023/09/01 03:52:04;;;;;;;0.98;0.77;;;11.00;99.90;;;;;;5016275;28;20046;-60
2023/09/01 03:54:29;;;;;;;0.80;0.80;;;11.00;99.90;;;;;;5016196;28;20413;-60
2023/09/01 03:56:55;;;;;;;0.80;0.80;;;11.10;99.90;;;;;;5016187;28;20037;-60
2023/09/01 03:59:21;;;;;;;1.77;0.98;;;11.10;99.90;;;;;;5016090;28;20107;-60
2023/09/01 04:01:47;;;;;;;0.77;0.77;;;11.00;99.90;;;;;;5015952;28;20045;-60
2023/09/01 04:04:13;;;;;;;0.80;0.80;;;10.90;99.90;;;;;;5015790;28;20053;-60
2023/09/01 04:06:40;;;;;;;1.10;0.80;;;10.90;99.90;;;;;;4998195;28;20413;-60
2023/09/01 04:09:06;;;;;;;0.80;0.80;;;10.90;99.90;;;;;;4998474;28;20535;-60
2023/09/01 04:11:32;;;;;;;1.02;0.90;;;10.80;99.90;;;;;;4998074;28;20045;-60
2023/09/01 04:13:58;;;;;;;0.60;0.60;;;10.80;99.90;;;;;;5015859;28;20045;-60
2023/09/01 04:16:24;;;;;;;1.30;0.70;;;11.30;99.90;;;;;;5015813;28;20042;-60
2023/09/01 04:18:50;;;;;;;0.70;0.70;;;10.70;99.90;;;;;;5015701;28;20611;-60
2023/09/01 04:21:16;;;;;;;0.70;0.60;;;10.90;99.90;;;;;;5015329;28;20108;-60
2023/09/01 04:23:41;;;;;;;2.15;0.70;;;10.90;99.90;;;;;;5015700;28;20042;-60
2023/09/01 04:26:07;;;;;;;0.90;0.77;;;11.00;99.90;;;;;;5015609;28;20087;-60
2023/09/01 04:28:33;;;;;;;0.73;0.73;;;10.90;99.90;;;;;;5015703;28;20117;-60
2023/09/01 04:31:00;;;;;;;1.00;0.90;;;10.90;99.90;;;;;;5015198;28;20030;-64
2023/09/01 04:33:27;;;;;;;0.70;0.68;;;10.70;99.90;;;;;;5015448;28;20117;-60
2023/09/01 04:36:00;;;;;;;0.50;0.50;;;10.90;99.90;;;;;;5015323;28;20050;-60
2023/09/01 04:38:25;;;;;;;0.73;0.65;;;10.90;99.90;;;;;;5014710;28;20041;-60
2023/09/01 04:40:59;;;;;;;0.77;0.77;;;10.90;99.90;;;;;;5014837;28;20046;-59
2023/09/01 04:43:26;;;;;;;0.70;0.70;;;10.90;99.90;;;;;;5015017;28;20081;-59
2023/09/01 04:45:56;;;;;;;0.65;0.60;;;10.80;99.90;;;;;;5015198;28;20045;-60
2023/09/01 04:48:22;;;;;;;1.23;0.70;;;10.80;99.90;;;;;;5015101;28;20037;-61
2023/09/01 04:50:47;;;;;;;1.55;1.00;;;10.80;99.90;;;;;;5014869;28;20080;-61
2023/09/01 04:53:15;;;;;;;1.20;0.80;;;10.70;99.90;;;;;;4997515;28;20552;-61
2023/09/01 04:55:41;;;;;;;1.35;1.25;;;10.60;99.90;;;;;;5014719;28;20042;-61
2023/09/01 04:58:07;;;;;;;0.77;0.77;;;10.80;99.90;;;;;;5015058;28;20452;-61
2023/09/01 05:00:33;;;;;;;0.98;0.80;;;10.80;99.90;;;;;;5014709;28;20041;-61
2023/09/01 05:02:58;;;;;;;0.80;0.80;;;10.90;99.90;;;;;;5014827;28;20092;-61
2023/09/01 05:05:24;;;;;;;0.50;0.50;;;10.90;99.90;;;;;;5014415;28;20054;-62
2023/09/01 05:07:50;;;;;;;0.60;0.60;;;11.00;99.90;;;;;;5014825;28;20034;-61
2023/09/01 05:10:15;;;;;;;0.65;0.63;;;11.00;99.90;;;;;;5014856;28;20102;-61
2023/09/01 05:12:41;;;;;;;1.02;0.90;;;11.00;99.90;;;;;;5014777;28;20400;-62
2023/09/01 05:15:07;;;;;;;0.63;0.63;;;11.10;99.90;;;;;;5014705;28;20037;-62
2023/09/01 05:17:33;;;;;;;1.00;0.90;;;11.10;99.90;;;;;;5014622;28;20042;-62
2023/09/01 05:19:59;;;;;;;1.02;0.93;;;11.10;99.90;;;;;;5014652;28;20392;-62
2023/09/01 05:22:25;;;;;;;1.10;1.00;;;11.10;99.90;;;;;;5014543;28;20042;-62
2023/09/01 05:24:53;;;;;;;0.68;0.68;;;11.20;99.90;;;;;;5014509;28;20426;-61
2023/09/01 05:27:19;;;;;;;1.00;0.95;;;11.10;99.90;;;;;;5014438;28;20042;-61
2023/09/01 05:29:48;;;;;;;0.68;0.68;;;11.10;99.90;;;;;;5014360;28;20478;-61
2023/09/01 05:32:15;;;;;;;1.13;0.98;;;11.20;99.90;;;;;;5014429;28;20059;-61
2023/09/01 05:34:40;;;;;;;1.42;0.93;;;11.20;99.90;;;;;;5014117;28;20038;-61
2023/09/01 05:37:07;;;;;;;1.35;1.13;;;11.30;99.90;;;;;;5014316;28;20125;-61
2023/09/01 05:39:34;;;;;;;1.30;1.20;;;11.20;99.90;;;;;;5014313;28;20423;-61
2023/09/01 05:41:59;;;;;;;1.75;1.33;;;11.40;99.90;;;;;;5014139;28;20053;-63
2023/09/01 05:44:25;;;;;;;1.05;0.95;;;11.40;99.90;;;;;;5013935;28;20030;-61
2023/09/01 05:46:51;;;;;;;1.27;1.08;;;11.40;99.90;;;;;;5014138;28;20038;-61
2023/09/01 05:49:16;;;;;;;1.05;0.95;;;11.50;99.90;;;;;;5014241;28;20060;-60
2023/09/01 05:51:42;;;;;;;1.20;1.10;;;11.40;99.90;;;;;;5013675;28;20099;-60
2023/09/01 05:54:07;;;;;;;0.98;0.98;;;11.50;99.90;;;;;;5013990;28;20034;-60
2023/09/01 05:56:33;;;;;;;1.27;1.05;;;11.70;99.90;;;;;;5013927;28;20482;-60
2023/09/01 05:58:58;;;;;;;1.65;1.10;;;11.60;99.90;;;;;;4996147;28;20045;-61
2023/09/01 06:01:24;;;;;;;1.35;1.25;;;11.80;99.90;;;;;;5013543;28;20092;-61
2023/09/01 06:03:49;;;;;;;1.10;1.00;;;11.80;99.90;;;;;;4996179;28;20121;-60
2023/09/01 06:06:15;;;;;;;0.82;0.82;;;11.90;99.90;;;;;;5013879;28;20081;-60
2023/09/01 06:08:40;;;;;;;1.25;0.90;;;12.00;99.90;;;;;;5013525;28;20057;-60
2023/09/01 06:11:08;;;;;;;0.90;0.90;;;12.10;99.90;;;;;;4995890;28;20049;-59
2023/09/01 06:13:34;;;;;;;0.82;0.80;;;12.10;99.90;;;;;;5013724;28;20081;-65
2023/09/01 06:16:03;;;;;;;0.90;0.90;;;12.20;99.90;;;;;;5013387;28;20452;-59
2023/09/01 06:18:29;;;;;;;0.85;0.85;;;12.20;99.90;;;;;;5013692;28;20402;-59
2023/09/01 06:20:55;;;;;;;1.00;1.00;;;12.30;99.90;;;;;;5013649;28;20038;-59
2023/09/01 06:23:20;;;;;;;1.40;1.30;;;12.30;99.90;;;;;;4995568;28;20551;-64
2023/09/01 06:25:46;;;;;;;1.50;1.38;;;12.30;99.90;;;;;;5013426;28;20049;-60
2023/09/01 06:28:12;;;;;;;0.90;0.90;;;12.40;99.90;;;;;;5013506;28;20030;-60
2023/09/01 06:30:40;;;;;;;1.30;1.10;;;12.50;99.90;;;;;;5013540;28;20450;-60
2023/09/01 06:33:07;;;;;;;1.40;1.23;;;12.60;99.90;;;;;;5013471;28;20052;-61
2023/09/01 06:35:34;;;;;;;0.98;0.82;;;12.70;99.90;;;;;;5013453;28;20136;-60
2023/09/01 06:38:02;;;;;;;1.02;0.88;;;12.70;99.90;;;;;;5013087;28;20045;-60
2023/09/01 06:40:28;;;;;;;0.85;0.85;;;12.90;99.90;;;;;;5013342;28;20077;-60
2023/09/01 06:42:53;;;;;;;1.10;0.90;;;13.00;99.90;;;;;;4995596;28;20453;-60
2023/09/01 06:45:19;;;;;;;1.10;1.00;;;13.10;99.90;;;;;;5012980;28;20049;-60
2023/09/01 06:47:44;;;;;;;0.68;0.68;;;13.30;99.90;;;;;;5013254;28;20044;-60
2023/09/01 06:50:10;;;;;;;1.40;0.80;;;13.30;99.90;;;;;;5013271;28;20037;-60
2023/09/01 06:52:35;;;;;;;1.08;0.98;;;13.50;99.90;;;;;;5012864;28;20454;-63
2023/09/01 06:55:01;;;;;;;1.58;0.98;;;13.60;99.90;;;;;;5012920;28;20042;-60
2023/09/01 06:57:27;;;;;;;1.20;0.88;;;13.70;99.90;;;;;;5012940;28;20145;-60
2023/09/01 06:59:53;;;;;;;1.90;0.88;;;13.90;99.90;;;;;;5012942;28;20042;-60
2023/09/01 07:02:18;;;;;;;0.85;0.80;;;14.10;99.90;;;;;;5013959;28;20100;-60
2023/09/01 07:04:44;;;;;;;0.70;0.70;;;14.30;99.90;;;;;;5016870;28;20053;-60
2023/09/01 07:07:09;;;;;;;0.52;0.52;;;14.40;99.90;;;;;;5016744;28;20120;-59
2023/09/01 07:09:35;;;;;;;0.57;0.57;;;14.40;99.90;;;;;;5017250;28;20026;-62
2023/09/01 07:12:01;;;;;;;0.60;0.60;;;14.50;99.90;;;;;;5016990;28;20088;-62
2023/09/01 07:14:27;;;;;;;0.70;0.70;;;14.50;99.90;;;;;;4999208;28;20053;-62
2023/09/01 07:16:53;;;;;;;1.25;0.70;;;;;;;;;;5016715;28;20034;-62
2023/09/01 07:19:18;;;;;;;2.70;0.73;;;14.70;99.90;;;;;;5016925;28;20042;-62
2023/09/01 07:21:44;;;;;;;0.50;0.50;;;14.70;99.90;;;;;;5016870;28;20357;-62
2023/09/01 07:24:11;;;;;;;0.50;0.50;;;14.80;99.90;;;;;;4999373;28;20034;-63
2023/09/01 07:26:37;;;;;;;2.30;0.85;;;14.90;99.90;;;;;;5016790;28;20052;-62
2023/09/01 07:29:03;;;;;;;0.30;0.30;;;15.00;99.90;;;;;;5016660;28;20526;-63
2023/09/01 07:31:28;;;;;;;0.70;0.50;;;15.10;99.90;;;;;;5016721;28;20073;-62
2023/09/01 07:33:54;;;;;;;1.58;0.75;;;15.10;99.90;;;;;;5016641;28;20037;-63
2023/09/01 07:36:21;;;;;;;0.68;0.68;;;15.20;99.90;;;;;;5016569;28;20042;-62
2023/09/01 07:38:47;;;;;;;0.40;0.40;;;15.20;99.90;;;;;;5016548;28;20053;-62
2023/09/01 07:41:13;;;;;;;1.25;0.68;;;15.60;99.90;;;;;;5016393;28;20383;-62
2023/09/01 07:43:39;;;;;;;1.20;0.98;;;15.20;99.90;;;;;;5016369;28;20116;-62
2023/09/01 07:46:04;;;;;;;0.90;0.77;;;15.40;99.90;;;;;;4998520;28;20049;-62
2023/09/01 07:48:30;;;;;;;1.23;0.75;;;15.40;99.90;;;;;;5016189;28;20044;-62
2023/09/01 07:50:56;;;;;;;0.98;0.52;;;15.50;99.90;;;;;;5015821;28;20038;-63
2023/09/01 07:53:21;;;;;;;1.33;0.82;;;15.50;99.90;;;;;;5016070;28;20042;-63
2023/09/01 07:55:47;;;;;;;0.75;0.63;;;15.50;99.90;;;;;;4998165;28;20097;-62
2023/09/01 07:58:13;;;;;;;1.27;0.90;;;14.10;99.90;;;;;;5015696;28;20038;-63
2023/09/01 08:00:40;;;;;;;0.95;0.60;;;15.70;99.90;;;;;;5015938;28;20050;-63
2023/09/01 08:03:10;;;;;;;1.60;0.80;;;16.30;99.90;;;;;;5015755;28;20038;-63
2023/09/01 08:05:42;;;;;;;0.73;0.60;;;15.80;99.90;;;;;;5015436;28;20058;-67
2023/09/01 08:08:08;;;;;;;0.95;0.60;;;15.80;99.90;;;;;;4997945;28;20453;-63
2023/09/01 08:10:34;;;;;;;0.55;0.52;;;15.90;99.90;;;;;;5015856;28;20111;-62
2023/09/01 08:12:59;;;;;;;1.25;0.70;;;15.90;99.90;;;;;;5015695;28;20029;-62
2023/09/01 08:15:25;;;;;;;0.98;0.77;;;15.80;99.90;;;;;;5015856;28;20046;-63
2023/09/01 08:17:53;;;;;;;0.75;0.70;;;16.00;99.90;;;;;;5015786;28;20048;-64
2023/09/01 08:20:18;;;;;;;1.20;0.93;;;16.00;99.90;;;;;;5015604;28;20034;-62
2023/09/01 08:22:44;;;;;;;0.90;0.80;;;16.00;99.90;;;;;;5015443;28;20049;-63
2023/09/01 08:25:10;;;;;;;0.52;0.52;;;16.10;99.90;;;;;;5015458;28;20026;-63
2023/09/01 08:27:35;;;;;;;0.98;0.85;;;16.20;99.90;;;;;;5015386;28;20119;-63
2023/09/01 08:30:03;;;;;;;0.73;0.73;;;16.10;99.90;;;;;;5015572;28;20386;-61
2023/09/01 08:32:29;;;;;;;0.93;0.80;;;16.50;99.90;;;;;;5015368;28;20077;-61
2023/09/01 08:34:54;;;;;;;1.15;0.70;;;16.40;99.90;;;;;;4997858;28;20073;-61
2023/09/01 08:37:20;;;;;;;0.60;0.60;;;16.40;99.90;;;;;;5015272;28;20042;-67
2023/09/01 08:39:49;;;;;;;1.48;0.80;;;16.50;99.90;;;;;;5014944;28;20042;-61
2023/09/01 08:42:16;;;;;;;1.00;0.90;;;16.30;99.90;;;;;;4997222;28;20448;-66
2023/09/01 08:44:42;;;;;;;0.70;0.70;;;16.70;99.90;;;;;;5014823;28;20048;-63
2023/09/01 08:47:13;;;;;;;0.80;0.80;;;16.90;99.90;;;;;;5014966;28;20038;-62
2023/09/01 08:49:38;;;;;;;2.30;1.02;;;16.80;99.90;;;;;;5015112;28;20053;-60
2023/09/01 08:52:05;;;;;;;0.75;0.65;;;16.90;99.90;;;;;;5015113;28;20042;-62
2023/09/01 08:54:31;;;;;;;0.60;0.60;;;17.00;99.90;;;;;;5015009;28;20096;-62
2023/09/01 08:56:56;;;;;;;1.48;0.98;;;17.00;99.90;;;;;;5014831;28;20045;-60
2023/09/01 08:59:24;;;;;;;0.90;0.70;;;17.00;99.90;;;;;;5014852;28;20056;-60
2023/09/01 09:01:49;;;;;;;0.90;0.60;;;17.80;99.90;;;;;;5014882;28;20077;-60
2023/09/01 09:04:15;;;;;;;1.67;0.60;;;17.10;99.90;;;;;;5014557;28;20147;-59
2023/09/01 09:06:42;;;;;;;0.70;0.70;;;17.10;99.90;;;;;;5014884;28;20042;-65
2023/09/01 09:09:15;;;;;;;1.25;0.80;;;17.00;99.90;;;;;;5014579;28;20048;-60
2023/09/01 09:12:00;;;;;;;1.05;0.70;;;17.10;99.90;;;;;;5014808;28;20445;-60
2023/09/01 09:14:30;;;;;;;0.55;0.50;;;17.10;99.90;;;;;;5014713;28;20088;-61
2023/09/01 09:16:57;;;;;;;0.65;0.65;;;17.20;99.90;;;;;;5014666;28;20042;-61
2023/09/01 09:19:24;;;;;;;0.80;0.60;;;17.30;99.90;;;;;;5014338;28;20042;-60
2023/09/01 09:22:04;;;;;;;0.75;0.73;;;17.30;99.90;;;;;;5014243;28;20050;-60
2023/09/01 09:24:34;;;;;;;;;;;17.20;99.90;;;;;;5014595;28;20041;-61
2023/09/01 09:27:00;;;;;;;0.80;0.77;;;17.40;99.90;;;;;;5013866;28;19917;-61
2023/09/01 09:29:25;;;;;;;0.85;0.80;;;17.90;99.90;;;;;;5014418;28;20038;-61
2023/09/01 09:31:51;;;;;;;1.48;0.88;;;18.30;99.90;;;;;;5014024;28;20069;-61
2023/09/01 09:34:25;;;;;;;0.70;0.70;;;17.70;98.30;;;;;;5014457;28;20030;-61
2023/09/01 09:36:51;;;;;;;2.40;0.98;;;17.80;99.90;;;;;;5014325;28;20113;-64
2023/09/01 09:39:27;;;;;;;0.95;0.80;;;17.60;99.90;;;;;;5014222;28;20045;-63
2023/09/01 09:41:54;;;;;;;0.60;0.57;;;17.80;99.90;;;;;;5014201;28;20037;-64
2023/09/01 09:44:29;;;;;;;0.98;0.65;;;17.60;99.00;;;;;;5013919;28;20048;-64
2023/09/01 09:46:55;;;;;;;0.70;0.68;;;17.70;99.90;;;;;;5013821;28;20410;-64
2023/09/01 09:49:22;;;;;;;1.15;0.82;;;17.90;99.80;;;;;;5014240;28;20045;-62
2023/09/01 09:51:52;;;;;;;1.55;1.00;;;17.70;99.90;;;;;;5013755;28;20050;-61
2023/09/01 09:54:23;;;;;;;1.30;0.90;;;17.90;99.90;;;;;;5014126;28;20029;-62
2023/09/01 09:56:52;;;;;;;0.82;0.80;;;18.20;99.90;;;;;;5013686;28;20061;-62
2023/09/01 09:59:30;;;;;;;1.15;1.00;;;17.80;97.70;;;;;;4996137;28;20042;-62
2023/09/01 10:01:58;;;;;;;1.02;0.80;;;17.80;99.60;;;;;;5013617;28;20577;-62
2023/09/01 10:04:24;;;;;;;0.60;0.60;;;17.70;99.90;;;;;;5013545;28;20123;-62
2023/09/01 10:06:50;;;;;;;1.05;0.80;;;17.70;99.20;;;;;;5013820;28;20038;-61
2023/09/01 10:09:17;;;;;;;1.65;0.68;;;17.80;99.00;;;;;;5013506;28;20478;-62
2023/09/01 10:11:45;;;;;;;1.38;0.80;;;17.90;99.20;;;;;;5013784;28;20441;-62
2023/09/01 10:14:13;;;;;;;1.20;0.77;;;17.80;98.40;;;;;;5013680;28;20510;-62
2023/09/01 10:16:39;;;;;;;1.20;0.95;;;17.70;95.00;;;;;;5013293;28;20077;-62
2023/09/01 10:19:05;;;;;;;1.58;0.68;;;17.60;93.60;;;;;;5013557;28;20069;-62
2023/09/01 10:21:31;;;;;;;0.65;0.60;;;17.70;95.40;;;;;;5013377;28;20084;-67
2023/09/01 10:23:56;;;;;;;0.63;0.63;;;17.70;97.20;;;;;;5013393;28;20367;-62
2023/09/01 10:26:25;;;;;;;1.50;0.90;;;17.80;98.00;;;;;;5013424;28;20038;-62
2023/09/01 10:29:13;;;;;;;1.35;1.08;;;18.10;96.50;;;;;;5013061;28;20401;-61
2023/09/01 10:31:39;;;;;;;1.67;1.20;;;18.10;95.60;;;;;;5013064;28;20182;-64
2023/09/01 10:34:12;;;;;;;1.85;0.88;;;17.80;98.00;;;;;;5013335;28;20141;-62
2023/09/01 10:36:39;;;;;;;1.33;0.95;;;17.90;96.90;;;;;;5013273;28;20040;-62
2023/09/01 10:39:17;;;;;;;1.15;0.90;;;17.80;95.10;;;;;;5013338;28;20042;-62
2023/09/01 10:42:00;;;;;;;0.90;0.65;;;17.80;95.20;;;;;;5013181;28;20050;-61
2023/09/01 10:44:44;;;;;;;1.67;1.13;;;17.80;94.70;;;;;;5012962;28;20041;-61
2023/09/01 10:47:31;;;;;;;1.73;1.17;;;17.70;94.80;;;;;;5013188;28;20040;-63
2023/09/01 10:50:01;;;;;;;1.92;1.27;;;17.80;96.20;;;;;;5013299;28;20080;-62
2023/09/01 10:52:28;;;;;;;1.85;1.40;;;18.30;97.70;;;;;;5013202;28;20038;-62
2023/09/01 10:55:00;;;;;;;1.25;1.08;;;17.90;97.70;;;;;;5013101;28;20053;-63
2023/09/01 10:57:47;;;;;;;1.02;0.80;;;18.10;97.00;;;;;;5013049;28;20038;-65
2023/09/01 11:00:30;;;;;;;1.40;1.20;;;17.80;97.10;;;;;;5013152;28;20126;-66
2023/09/01 11:03:31;;;;;;;1.13;1.02;;;17.80;93.30;;;;;;5012678;28;20052;-65
2023/09/01 11:06:01;;;;;;;1.48;0.98;;;17.70;94.90;;;;;;5008791;28;20422;-65
2023/09/01 11:08:28;;;;;;;2.15;1.20;;;17.80;96.90;;;;;;5013098;28;20088;-65
2023/09/01 11:10:55;;;;;;;1.38;1.27;;;18.00;97.90;;;;;;5013103;28;20041;-65
2023/09/01 11:13:25;;;;;;;2.03;1.00;;;17.80;97.90;;;;;;5013026;28;20501;-65
2023/09/01 11:15:51;;;;;;;1.00;1.00;;;18.00;97.40;;;;;;5012958;28;20378;-66
2023/09/01 11:18:22;;;;;;;1.48;1.38;;;18.20;97.00;;;;;;5012991;28;20477;-65
2023/09/01 11:20:50;;;;;;;1.83;1.40;;;18.50;96.90;;;;;;5013044;28;20444;-65
2023/09/01 11:23:20;;;;;;;1.20;1.05;;;18.10;96.30;;;;;;5012927;28;20088;-68
2023/09/01 11:25:48;;;;;;;1.40;1.27;;;18.10;97.70;;;;;;5012594;28;20177;-64
2023/09/01 11:28:14;;;;;;;1.63;1.38;;;18.10;97.50;;;;;;5012886;28;20034;-65
2023/09/01 11:31:03;;;;;;;1.50;1.40;;;18.20;91.10;;;;;;5012866;28;20437;-65
2023/09/01 11:33:33;;;;;;;2.47;1.95;;;18.20;92.90;;;;;;5012923;28;20088;-65
2023/09/01 11:36:10;;;;;;;3.28;1.90;;;18.30;95.10;;;;;;5013202;28;20041;-65
2023/09/01 11:38:36;;;;;;;1.33;1.10;;;18.30;91.50;;;;;;5012765;28;20037;-65
2023/09/01 11:41:05;;;;;;;2.08;1.80;;;18.40;95.10;;;;;;5012604;28;20084;-64
2023/09/01 11:43:30;;;;;;;2.95;1.70;;;18.40;94.90;;;;;;5012676;28;20096;-64
2023/09/01 11:45:56;;;;;;;1.77;1.60;;;18.40;95.30;;;;;;4995066;28;20486;-64
2023/09/01 11:48:26;;;;;;;1.40;1.30;;;18.40;94.20;;;;;;4996088;28;20042;-64
2023/09/01 11:50:55;;;;;;;1.73;1.63;;;18.40;94.40;;;;;;4998626;28;20045;-64
2023/09/01 11:53:26;;;;;;;3.10;1.55;;;18.30;94.40;;;;;;4998400;28;20092;-64
2023/09/01 11:55:52;;;;;;;1.75;1.33;;;18.40;94.20;;;;;;4998362;28;20115;-65
2023/09/01 11:58:18;;;;;;;1.73;1.55;;;18.40;95.50;;;;;;5015879;28;20092;-65
2023/09/01 12:00:44;;;;;;;3.10;1.70;;;18.50;95.10;;;;;;4998481;28;20046;-65
2023/09/01 12:06:49;;;;;;;1.40;1.30;;;18.70;93.10;;;;;;5110231;27;20296;-62
2023/09/01 12:09:16;;;;;;;1.80;1.70;;;18.70;96.00;;;;;;5110690;28;20036;-60
2023/09/01 12:12:00;;;;;;;2.28;1.70;;;18.80;95.40;;;;;;5092383;28;20040;-61
2023/09/01 12:14:31;;;;;;;1.75;1.65;;;18.80;94.00;;;;;;5109462;28;20476;-61
2023/09/01 12:16:58;;;;;;;1.83;1.67;;;18.80;94.50;;;;;;5110794;28;20061;-60
2023/09/01 12:19:26;;;;;;;2.38;2.08;;;18.80;93.50;;;;;;5109136;28;20047;-60
2023/09/01 12:21:53;;;;;;;2.13;1.80;;;18.90;93.70;;;;;;5110583;28;20085;-60
2023/09/01 12:24:19;;;;;;;2.67;2.17;;;18.80;90.90;;;;;;5108989;28;20050;-61
2023/09/01 12:26:46;;;;;;;2.15;1.95;;;18.80;93.70;;;;;;5110283;28;20479;-63
2023/09/01 12:29:11;;;;;;;3.38;2.42;;;18.90;94.70;;;;;;5110067;28;20040;-61
2023/09/01 12:31:37;;;;;;;2.53;1.90;;;19.10;94.40;;;;;;5110043;28;20089;-62
2023/09/01 12:34:03;;;;;;;2.22;2.03;;;19.20;93.30;;;;;;5109157;28;20061;-62
2023/09/01 12:36:28;;;;;;;2.47;2.28;;;19.30;93.20;;;;;;5125850;28;20047;-62
2023/09/01 12:38:54;;;;;;;2.10;1.88;;;19.90;86.40;;;;;;5109890;28;20042;-62
2023/09/01 12:41:19;;;;;;;1.73;1.63;;;19.50;84.40;;;;;;5110257;28;20046;-62
2023/09/01 12:43:45;;;;;;;2.33;1.50;;;19.60;85.10;;;;;;5110292;28;20040;-62
2023/09/01 12:46:10;;;;;;;1.63;1.52;;;19.80;84.80;;;;;;5110201;28;20571;-62
2023/09/01 12:48:36;;;;;;;1.73;1.55;;;19.90;81.00;;;;;;5110174;28;20063;-62
2023/09/01 12:51:02;;;;;;;1.90;1.67;;;19.80;78.00;;;;;;5109985;28;20483;-63
2023/09/01 12:53:27;;;;;;;1.95;1.77;;;20.00;74.10;;;;;;5108710;28;20043;-62